Terminal Aerodrome Forecast
Issued by NWS

Home | Current Version | Previous Version | Text Only | Print | Product List | Glossary On
Versions: 1 2 3 4 5 6 7 8 9 10 11 12 13 14 15 16 17 18 19 20 21 22 23 24 25 26
844
FTAK31 PAFG 211736
TAFAUN
TAF
PAUN 211736Z 2118/2218 07015G20KT P6SM -SN OVC040
     FM211900 06015KT P6SM VCSH SCT035 BKN050
     FM220300 09012KT P6SM SCT050 BKN100
     FM220600 09015KT P6SM FEW050 SCT100 SCT200=

USA.gov is the U.S. government's official web portal to all federal, state and local government web resources and services.